Airfield :
LOGIN :

Register | Disclaimer

   EN    FR    IT 

 










Legend :    VFR   Marginal VFR   IFR   Intensive IFR   Very Intensive IFR
Visi :
Ceiling :
>= 8 km
>= 3000ft
5 to 8 km
1000 to 3000 ft
1500m to 5 km
500 to 1000 ft
800 to 1500m
200 to 500 ft
< 800m
< 200 ft
Symbols :   Thunderstorms  Fog  Heavy snow  Heavy precipitations  Wind > 20 kt
SIGMETs :     Misc.  Thunderstorms  Icing  Turbulence  Mountain Waves  Volcanic Ashes






- Airport Elevation : 142 ft
- IATA code : ALC


LEAL - Alicante

CURRENT METAR :
  • 171300Z 08013KT 050V130 9999 FEW018 19/09 Q1015 NOSIG

EXPIRED METARs :
  • 171230Z 07013KT 9999 FEW018 19/09 Q1016 NOSIG
  • 171200Z 07013KT 050V120 9999 FEW018 19/09 Q1016 NOSIG
  • 171130Z 07013KT 050V110 9999 FEW018 19/09 Q1016 NOSIG
  • 171100Z 07013KT 050V110 9999 FEW016 20/09 Q1016 NOSIG
  • 171030Z 07013KT 9999 FEW014 18/09 Q1016 NOSIG
  • 171000Z VRB04G14KT 9999 FEW014 18/10 Q1016 NOSIG
  • 170930Z 07015KT 9999 FEW014 19/10 Q1016 NOSIG
  • 170900Z 07014KT 040V100 9999 FEW014 18/11 Q1016 NOSIG
  • 170830Z 07016KT 9999 FEW012 18/12 Q1016 NOSIG

TAF TAF LEAL
Valid from the 17 at 12:00 until the 18 at 12:00 UTC


171100Z 1712/1812 09010KT 9999 FEW020 TX21/1712Z TN12/1806Z
BECMG 1718/1720 VRB04KT
BECMG 1808/1810 11010KT



MET'MAP, your aeronautical weather chart ! - Copyright ORBIFLY December 2007 - Disclaimer

ORBIFLY MET'MAP TEAM :

Programming & Development : Alexandra Zaïnal
Original concept : Baudouin d'Aumeries
Technical & hardware support : Manuel Goepfert
Assistance : Marc-Olivier Méhu




SOURCES & CREDITS :

   NOAA